createdAt,value
2018-04-19T00:00:39.948Z,0
2018-04-19T00:01:40.687Z,0
2018-04-19T00:02:41.493Z,0
2018-04-19T00:03:42.658Z,0
2018-04-19T00:04:43.380Z,0
2018-04-19T00:05:44.113Z,0
2018-04-19T00:06:44.932Z,0
2018-04-19T00:07:45.682Z,0
2018-04-19T00:08:46.427Z,0
2018-04-19T00:09:47.154Z,0
2018-04-19T00:10:47.957Z,0
2018-04-19T00:11:48.746Z,0
2018-04-19T00:12:49.487Z,0
2018-04-19T00:13:50.263Z,0
2018-04-19T00:14:51.013Z,0
2018-04-19T00:15:51.760Z,0
2018-04-19T00:16:52.893Z,0
2018-04-19T00:17:53.648Z,0
2018-04-19T00:18:54.484Z,0
2018-04-19T00:19:55.218Z,0
2018-04-19T00:20:55.958Z,0
2018-04-19T00:21:56.792Z,0
2018-04-19T00:22:57.532Z,0
2018-04-19T00:23:58.274Z,0
2018-04-19T00:24:59.061Z,0
2018-04-19T00:25:59.806Z,0
2018-04-19T00:27:00.638Z,0
2018-04-19T00:28:01.382Z,0
2018-04-19T00:29:02.152Z,0
2018-04-19T00:30:02.963Z,0
2018-04-19T00:31:03.794Z,0
2018-04-19T00:32:04.643Z,0
2018-04-19T00:33:05.455Z,0
2018-04-19T00:34:06.239Z,0
2018-04-19T00:35:06.991Z,0
2018-04-19T00:36:07.714Z,0
2018-04-19T00:37:08.473Z,0
2018-04-19T00:38:09.252Z,0
2018-04-19T00:39:09.995Z,0
2018-04-19T00:40:10.717Z,0
2018-04-19T00:41:11.532Z,0
2018-04-19T00:42:12.274Z,0
2018-04-19T00:43:13.019Z,0
2018-04-19T00:44:13.821Z,0
2018-04-19T00:45:14.553Z,0
2018-04-19T00:46:15.287Z,0
2018-04-19T00:47:16.047Z,0
2018-04-19T00:48:16.918Z,0
2018-04-19T00:49:17.664Z,0
2018-04-19T00:50:18.485Z,0
2018-04-19T00:51:19.205Z,0
2018-04-19T00:52:19.964Z,0
2018-04-19T00:53:20.773Z,0
2018-04-19T00:54:21.582Z,0
2018-04-19T00:55:22.322Z,0
2018-04-19T00:56:23.103Z,0
2018-04-19T00:57:23.841Z,0
2018-04-19T00:58:24.570Z,0
2018-04-19T00:59:25.331Z,0
2018-04-19T01:00:26.153Z,0
2018-04-19T01:01:26.913Z,0
2018-04-19T01:02:27.643Z,0
2018-04-19T01:03:28.369Z,0
2018-04-19T01:04:29.115Z,0
2018-04-19T01:05:29.958Z,0
2018-04-19T01:06:30.721Z,0
2018-04-19T01:07:31.464Z,0
2018-04-19T01:08:32.210Z,0
2018-04-19T01:09:32.937Z,0
2018-04-19T01:10:33.780Z,0
2018-04-19T01:11:34.532Z,0
2018-04-19T01:12:35.292Z,0
2018-04-19T01:13:36.043Z,0
2018-04-19T01:14:36.778Z,0
2018-04-19T01:15:37.550Z,0
2018-04-19T01:16:38.292Z,0
2018-04-19T01:17:39.056Z,0
2018-04-19T01:18:39.802Z,0
2018-04-19T01:19:40.542Z,0
2018-04-19T01:20:41.292Z,0
2018-04-19T01:21:42.036Z,0
2018-04-19T01:22:42.844Z,0
2018-04-19T01:23:43.589Z,0
2018-04-19T01:24:44.341Z,0
2018-04-19T01:25:45.083Z,0
2018-04-19T01:26:45.822Z,0
2018-04-19T01:27:46.654Z,0
2018-04-19T01:28:47.407Z,0
2018-04-19T01:29:48.208Z,0
2018-04-19T01:30:48.988Z,0
2018-04-19T01:31:49.793Z,0
2018-04-19T01:32:50.643Z,0
2018-04-19T01:33:51.391Z,0
2018-04-19T01:34:52.160Z,0
2018-04-19T01:35:52.897Z,0
2018-04-19T01:36:53.742Z,0
2018-04-19T01:37:54.489Z,0
2018-04-19T01:38:55.222Z,0
2018-04-19T01:39:55.962Z,0
2018-04-19T01:40:56.676Z,0
2018-04-19T01:41:57.423Z,0
2018-04-19T01:42:58.163Z,0
2018-04-19T01:43:58.910Z,0
2018-04-19T01:44:59.635Z,0
2018-04-19T01:46:00.393Z,0
2018-04-19T01:47:01.128Z,0
2018-04-19T01:48:01.865Z,0
2018-04-19T01:49:02.668Z,0
2018-04-19T01:50:03.482Z,0
2018-04-19T01:51:04.230Z,0
2018-04-19T01:52:04.963Z,0
2018-04-19T01:53:05.713Z,0
2018-04-19T01:54:06.462Z,0
2018-04-19T01:55:07.206Z,0
2018-04-19T01:56:08.028Z,0
2018-04-19T01:57:08.765Z,0
2018-04-19T01:58:09.578Z,0
2018-04-19T01:59:10.410Z,0
2018-04-19T02:00:11.234Z,0
2018-04-19T02:01:12.042Z,0
2018-04-19T02:02:12.765Z,0
2018-04-19T02:03:13.499Z,0
2018-04-19T02:04:14.698Z,0
2018-04-19T02:05:15.420Z,0
2018-04-19T02:06:16.137Z,0
2018-04-19T02:07:16.866Z,0
2018-04-19T02:08:17.613Z,0
2018-04-19T02:09:18.483Z,0
2018-04-19T02:10:19.293Z,0
2018-04-19T02:11:20.036Z,0
2018-04-19T02:12:20.765Z,0
2018-04-19T02:13:21.466Z,0
2018-04-19T02:14:22.277Z,0
2018-04-19T02:15:23.001Z,0
2018-04-19T02:16:23.751Z,0
2018-04-19T02:17:24.543Z,0
2018-04-19T02:18:25.283Z,0
2018-04-19T02:19:26.357Z,0
2018-04-19T02:20:27.082Z,0
2018-04-19T02:21:27.826Z,0
2018-04-19T02:22:28.616Z,0
2018-04-19T02:23:29.368Z,0
2018-04-19T02:24:30.226Z,0
2018-04-19T02:25:31.028Z,0
2018-04-19T02:26:31.772Z,0
2018-04-19T02:27:32.504Z,0
2018-04-19T02:28:33.238Z,0
2018-04-19T02:29:33.988Z,0
2018-04-19T02:30:34.804Z,0
2018-04-19T02:31:35.695Z,0
2018-04-19T02:32:36.442Z,0
2018-04-19T02:33:37.173Z,0
2018-04-19T02:34:37.889Z,0
2018-04-19T02:35:38.651Z,0
2018-04-19T02:36:39.542Z,0
2018-04-19T02:37:40.259Z,0
2018-04-19T02:38:40.995Z,0
2018-04-19T02:39:41.736Z,0
2018-04-19T02:40:42.473Z,0
2018-04-19T02:41:43.199Z,0
2018-04-19T02:42:43.938Z,0
2018-04-19T02:43:44.681Z,0
2018-04-19T02:44:45.420Z,0
2018-04-19T02:45:46.163Z,0
2018-04-19T02:46:46.899Z,0
2018-04-19T02:47:47.637Z,0
2018-04-19T02:48:48.381Z,0
2018-04-19T02:49:49.510Z,0
2018-04-19T02:50:50.258Z,0
2018-04-19T02:51:51.000Z,0
2018-04-19T02:52:51.725Z,0
2018-04-19T02:53:52.463Z,0
2018-04-19T02:54:53.205Z,0
2018-04-19T02:55:53.963Z,0
2018-04-19T02:56:54.793Z,0
2018-04-19T02:57:55.538Z,0
2018-04-19T02:58:56.287Z,0
2018-04-19T02:59:57.083Z,0
2018-04-19T03:00:57.824Z,0
2018-04-19T03:01:58.543Z,0
2018-04-19T03:02:59.268Z,0
2018-04-19T03:04:00.056Z,0
2018-04-19T03:05:00.791Z,0
2018-04-19T03:06:01.590Z,0
2018-04-19T03:07:02.307Z,0
2018-04-19T03:08:03.053Z,0
2018-04-19T03:09:03.795Z,0
2018-04-19T03:10:04.566Z,0
2018-04-19T03:11:05.294Z,0
2018-04-19T03:12:06.098Z,0
2018-04-19T03:13:06.986Z,0
2018-04-19T03:14:07.733Z,0
2018-04-19T03:15:08.431Z,0
2018-04-19T03:16:09.170Z,0
2018-04-19T03:17:09.948Z,0
2018-04-19T03:18:10.770Z,0
2018-04-19T03:19:11.578Z,0
2018-04-19T03:20:12.308Z,0
2018-04-19T03:21:13.055Z,0
2018-04-19T03:22:13.794Z,0
2018-04-19T03:23:14.550Z,0
2018-04-19T03:24:15.379Z,0
2018-04-19T03:25:16.218Z,0
2018-04-19T03:26:16.941Z,0
2018-04-19T03:27:17.667Z,0
2018-04-19T03:28:18.408Z,0
2018-04-19T03:29:19.165Z,0
2018-04-19T03:30:19.902Z,0
2018-04-19T03:31:20.719Z,0
2018-04-19T03:32:21.463Z,0
2018-04-19T03:33:22.197Z,0
2018-04-19T03:34:22.943Z,0
2018-04-19T03:35:23.980Z,0
2018-04-19T03:36:24.794Z,0
2018-04-19T03:37:25.526Z,0
2018-04-19T03:38:26.349Z,0
2018-04-19T03:39:27.080Z,0
2018-04-19T03:40:27.879Z,0
2018-04-19T03:41:28.615Z,0
2018-04-19T03:42:29.346Z,0
2018-04-19T03:43:30.070Z,0
2018-04-19T03:44:30.894Z,0
2018-04-19T03:45:31.698Z,0
2018-04-19T03:46:32.440Z,0
2018-04-19T03:47:33.184Z,0
2018-04-19T03:48:33.961Z,0
2018-04-19T03:49:34.679Z,0
2018-04-19T03:50:35.813Z,0
2018-04-19T03:51:36.532Z,0
2018-04-19T03:52:37.351Z,0
2018-04-19T03:53:38.172Z,0
2018-04-19T03:54:38.918Z,0
2018-04-19T03:55:39.669Z,0
2018-04-19T03:56:40.404Z,0
2018-04-19T03:57:41.140Z,0
2018-04-19T03:58:41.880Z,0
2018-04-19T03:59:42.993Z,0
2018-04-19T04:00:43.734Z,0
2018-04-19T04:01:44.473Z,0
2018-04-19T04:02:45.202Z,0
2018-04-19T04:03:45.947Z,0
2018-04-19T04:04:46.863Z,0
2018-04-19T04:05:47.625Z,0
2018-04-19T04:06:48.372Z,0
2018-04-19T04:07:49.115Z,0
2018-04-19T04:08:50.000Z,0
2018-04-19T04:09:50.656Z,5
2018-04-19T04:10:51.488Z,5
2018-04-19T04:11:52.275Z,5
2018-04-19T04:12:53.082Z,5
2018-04-19T04:13:53.875Z,5
2018-04-19T04:14:54.595Z,5
2018-04-19T04:15:55.323Z,5
2018-04-19T04:16:56.061Z,11
2018-04-19T04:17:56.913Z,11
2018-04-19T04:18:57.647Z,11
2018-04-19T04:19:58.465Z,11
2018-04-19T04:20:59.268Z,16
2018-04-19T04:22:00.054Z,16
2018-04-19T04:23:00.803Z,16
2018-04-19T04:24:01.566Z,16
2018-04-19T04:25:02.291Z,22
2018-04-19T04:26:03.053Z,22
2018-04-19T04:27:03.810Z,22
2018-04-19T04:28:04.940Z,28
2018-04-19T04:29:05.672Z,28
2018-04-19T04:30:06.444Z,28
2018-04-19T04:31:07.269Z,33
2018-04-19T04:32:07.970Z,33
2018-04-19T04:33:08.825Z,39
2018-04-19T04:34:09.549Z,39
2018-04-19T04:35:10.374Z,39
2018-04-19T04:36:11.115Z,45
2018-04-19T04:37:11.866Z,45
2018-04-19T04:38:12.759Z,50
2018-04-19T04:39:13.576Z,50
2018-04-19T04:40:14.323Z,50
2018-04-19T04:41:15.055Z,56
2018-04-19T04:42:15.804Z,56
2018-04-19T04:43:16.538Z,61
2018-04-19T04:44:17.317Z,61
2018-04-19T04:45:18.057Z,61
2018-04-19T04:46:18.793Z,67
2018-04-19T04:47:19.609Z,67
2018-04-19T04:48:20.431Z,73
2018-04-19T04:49:21.251Z,73
2018-04-19T04:50:22.046Z,78
2018-04-19T04:51:22.777Z,78
2018-04-19T04:52:23.527Z,84
2018-04-19T04:53:24.329Z,84
2018-04-19T04:54:25.085Z,84
2018-04-19T04:55:25.923Z,90
2018-04-19T04:56:26.717Z,90
2018-04-19T04:57:27.474Z,95
2018-04-19T04:58:28.364Z,95
2018-04-19T04:59:29.106Z,101
2018-04-19T05:00:29.852Z,101
2018-04-19T05:01:30.598Z,106
2018-04-19T05:02:31.383Z,106
2018-04-19T05:03:32.481Z,112
2018-04-19T05:04:33.229Z,118
2018-04-19T05:05:34.034Z,118
2018-04-19T05:06:34.819Z,123
2018-04-19T05:07:35.556Z,123
2018-04-19T05:08:36.306Z,129
2018-04-19T05:09:37.041Z,129
2018-04-19T05:10:37.792Z,129
2018-04-19T05:11:38.620Z,129
2018-04-19T05:12:39.375Z,135
2018-04-19T05:13:40.195Z,135
2018-04-19T05:14:40.941Z,140
2018-04-19T05:15:41.682Z,140
2018-04-19T05:16:42.424Z,146
2018-04-19T05:17:43.179Z,146
2018-04-19T05:18:43.995Z,151
2018-04-19T05:19:44.750Z,151
2018-04-19T05:20:45.558Z,157
2018-04-19T05:21:46.366Z,163
2018-04-19T05:22:47.112Z,157
2018-04-19T05:23:47.849Z,163
2018-04-19T05:24:48.590Z,168
2018-04-19T05:25:49.661Z,168
2018-04-19T05:26:50.418Z,174
2018-04-19T05:27:51.175Z,174
2018-04-19T05:28:51.912Z,174
2018-04-19T05:29:52.647Z,180
2018-04-19T05:30:53.395Z,180
2018-04-19T05:31:54.138Z,185
2018-04-19T05:32:54.866Z,185
2018-04-19T05:33:55.600Z,191
2018-04-19T05:34:56.340Z,196
2018-04-19T05:35:57.129Z,208
2018-04-19T05:36:57.889Z,208
2018-04-19T05:37:58.735Z,202
2018-04-19T05:38:59.546Z,208
2018-04-19T05:40:00.348Z,213
2018-04-19T05:41:01.275Z,213
2018-04-19T05:42:02.041Z,208
2018-04-19T05:43:02.779Z,213
2018-04-19T05:44:03.613Z,219
2018-04-19T05:45:04.439Z,219
2018-04-19T05:46:05.245Z,219
2018-04-19T05:47:05.985Z,219
2018-04-19T05:48:06.736Z,225
2018-04-19T05:49:07.536Z,230
2018-04-19T05:50:08.365Z,225
2018-04-19T05:51:09.220Z,219
2018-04-19T05:52:09.980Z,230
2018-04-19T05:53:10.728Z,225
2018-04-19T05:54:11.521Z,230
2018-04-19T05:55:12.330Z,236
2018-04-19T05:56:13.162Z,241
2018-04-19T05:57:13.991Z,241
2018-04-19T05:58:14.789Z,236
2018-04-19T05:59:15.589Z,241
2018-04-19T06:00:16.313Z,236
2018-04-19T06:01:17.068Z,236
2018-04-19T06:02:17.812Z,236
2018-04-19T06:03:18.640Z,241
2018-04-19T06:04:19.376Z,241
2018-04-19T06:05:20.127Z,241
2018-04-19T06:06:21.053Z,241
2018-04-19T06:07:21.877Z,247
2018-04-19T06:08:22.625Z,247
2018-04-19T06:09:23.415Z,253
2018-04-19T06:10:24.217Z,258
2018-04-19T06:11:25.044Z,258
2018-04-19T06:12:25.790Z,258
2018-04-19T06:13:26.543Z,258
2018-04-19T06:14:27.266Z,258
2018-04-19T06:15:28.025Z,264
2018-04-19T06:16:29.124Z,264
2018-04-19T06:17:29.864Z,270
2018-04-19T06:18:30.598Z,264
2018-04-19T06:19:31.339Z,270
2018-04-19T06:20:32.088Z,275
2018-04-19T06:21:32.851Z,275
2018-04-19T06:22:33.666Z,275
2018-04-19T06:23:34.446Z,281
2018-04-19T06:24:35.267Z,292
2018-04-19T06:25:36.007Z,281
2018-04-19T06:26:36.763Z,292
2018-04-19T06:27:37.607Z,286
2018-04-19T06:28:38.456Z,286
2018-04-19T06:29:39.192Z,286
2018-04-19T06:30:39.931Z,292
2018-04-19T06:31:40.672Z,292
2018-04-19T06:32:41.397Z,292
2018-04-19T06:33:42.216Z,331
2018-04-19T06:34:42.946Z,337
2018-04-19T06:35:43.701Z,309
2018-04-19T06:36:44.521Z,320
2018-04-19T06:37:45.334Z,309
2018-04-19T06:38:46.085Z,371
2018-04-19T06:39:46.915Z,348
2018-04-19T06:40:47.755Z,320
2018-04-19T06:41:48.503Z,348
2018-04-19T06:42:49.331Z,354
2018-04-19T06:43:50.094Z,337
2018-04-19T06:44:50.834Z,371
2018-04-19T06:45:51.572Z,320
2018-04-19T06:46:52.327Z,326
2018-04-19T06:47:53.078Z,326
2018-04-19T06:48:53.843Z,331
2018-04-19T06:49:54.605Z,348
2018-04-19T06:50:55.420Z,343
2018-04-19T06:51:56.159Z,337
2018-04-19T06:52:56.893Z,337
2018-04-19T06:53:57.635Z,337
2018-04-19T06:54:58.387Z,343
2018-04-19T06:55:59.198Z,376
2018-04-19T06:57:00.017Z,360
2018-04-19T06:58:00.749Z,421
2018-04-19T06:59:01.565Z,433
2018-04-19T07:00:02.350Z,365
2018-04-19T07:01:03.172Z,393
2018-04-19T07:02:03.935Z,388
2018-04-19T07:03:04.681Z,433
2018-04-19T07:04:05.451Z,461
2018-04-19T07:05:06.287Z,388
2018-04-19T07:06:07.040Z,382
2018-04-19T07:07:07.786Z,495
2018-04-19T07:08:08.544Z,556
2018-04-19T07:09:09.287Z,360
2018-04-19T07:10:10.041Z,365
2018-04-19T07:11:10.819Z,365
2018-04-19T07:12:11.574Z,371
2018-04-19T07:13:12.411Z,371
2018-04-19T07:14:13.140Z,371
2018-04-19T07:15:13.976Z,371
2018-04-19T07:16:14.706Z,393
2018-04-19T07:17:15.464Z,596
2018-04-19T07:18:16.192Z,528
2018-04-19T07:19:16.986Z,461
2018-04-19T07:20:17.811Z,466
2018-04-19T07:21:18.572Z,405
2018-04-19T07:22:19.329Z,506
2018-04-19T07:23:20.109Z,1001
2018-04-19T07:24:20.955Z,849
2018-04-19T07:25:21.713Z,466
2018-04-19T07:26:22.527Z,466
2018-04-19T07:27:23.262Z,573
2018-04-19T07:28:24.004Z,517
2018-04-19T07:29:24.810Z,438
2018-04-19T07:30:25.563Z,815
2018-04-19T07:31:26.332Z,1524
2018-04-19T07:32:27.187Z,1704
2018-04-19T07:33:27.936Z,1726
2018-04-19T07:34:28.739Z,1726
2018-04-19T07:35:29.500Z,1738
2018-04-19T07:36:30.320Z,1732
2018-04-19T07:37:31.137Z,1653
2018-04-19T07:38:31.975Z,1321
2018-04-19T07:39:32.728Z,1372
2018-04-19T07:40:33.480Z,1254
2018-04-19T07:41:34.222Z,978
2018-04-19T07:42:35.043Z,900
2018-04-19T07:43:35.879Z,1417
2018-04-19T07:44:36.620Z,1507
2018-04-19T07:45:37.456Z,1153
2018-04-19T07:46:38.280Z,1293
2018-04-19T07:47:39.098Z,511
2018-04-19T07:48:39.896Z,866
2018-04-19T07:49:40.734Z,438
2018-04-19T07:50:41.482Z,646
2018-04-19T07:51:42.305Z,843
2018-04-19T07:52:43.065Z,826
2018-04-19T07:53:44.229Z,1012
2018-04-19T07:54:44.958Z,1361
2018-04-19T07:55:45.785Z,1586
2018-04-19T07:56:46.544Z,1546
2018-04-19T07:57:47.287Z,1800
2018-04-19T07:58:48.095Z,1586
2018-04-19T07:59:48.957Z,2025
2018-04-19T08:00:49.806Z,2053
2018-04-19T08:01:50.626Z,2115
2018-04-19T08:02:51.391Z,2160
2018-04-19T08:03:52.143Z,2098
2018-04-19T08:04:53.297Z,1530
2018-04-19T08:05:54.030Z,973
2018-04-19T08:06:54.879Z,1102
2018-04-19T08:07:55.687Z,810
2018-04-19T08:08:56.445Z,2250
2018-04-19T08:09:57.199Z,1327
2018-04-19T08:10:57.957Z,2289
2018-04-19T08:11:58.717Z,2295
2018-04-19T08:12:59.524Z,2295
2018-04-19T08:14:00.359Z,2250
2018-04-19T08:15:01.169Z,2199
2018-04-19T08:16:01.906Z,2171
2018-04-19T08:17:02.663Z,2131
2018-04-19T08:18:03.442Z,2115
2018-04-19T08:19:04.168Z,2205
2018-04-19T08:20:05.004Z,2295
2018-04-19T08:21:05.751Z,2407
2018-04-19T08:22:06.504Z,2469
2018-04-19T08:23:07.312Z,2458
2018-04-19T08:24:08.029Z,2385
2018-04-19T08:25:08.954Z,2283
2018-04-19T08:26:09.698Z,2188
2018-04-19T08:27:10.534Z,2109
2018-04-19T08:28:11.281Z,2053
2018-04-19T08:29:12.073Z,2081
2018-04-19T08:30:13.219Z,2154
2018-04-19T08:31:14.016Z,2250
2018-04-19T08:32:14.780Z,2401
2018-04-19T08:33:15.618Z,2531
2018-04-19T08:34:16.434Z,2610
2018-04-19T08:35:17.549Z,2660
2018-04-19T08:36:18.557Z,2655
2018-04-19T08:37:20.707Z,2626
2018-04-19T08:38:21.747Z,2615
2018-04-19T08:39:22.582Z,2610
2018-04-19T08:40:24.678Z,2621
2018-04-19T08:41:25.715Z,2621
2018-04-19T08:42:27.302Z,2643
2018-04-19T08:43:28.009Z,2677
2018-04-19T08:44:28.928Z,2733
2018-04-19T08:45:29.686Z,2756
2018-04-19T08:46:30.512Z,2795
2018-04-19T08:47:31.406Z,2806
2018-04-19T08:48:32.558Z,2784
2018-04-19T08:49:33.314Z,2733
2018-04-19T08:50:34.123Z,2716
2018-04-19T08:51:34.953Z,2745
2018-04-19T08:52:35.708Z,2790
2018-04-19T08:53:36.654Z,2868
2018-04-19T08:54:37.478Z,2925
2018-04-19T08:55:38.203Z,2981
2018-04-19T08:56:38.962Z,2981
2018-04-19T08:57:39.747Z,2964
2018-04-19T08:58:40.976Z,2975
2018-04-19T08:59:41.778Z,2925
2018-04-19T09:00:42.534Z,2857
2018-04-19T09:01:43.348Z,2925
2018-04-19T09:02:44.117Z,2998
2018-04-19T09:03:44.871Z,2953
2018-04-19T09:04:45.652Z,2953
2018-04-19T09:05:46.401Z,2941
2018-04-19T09:06:47.251Z,2947
2018-04-19T09:07:48.028Z,2953
2018-04-19T09:08:48.783Z,2941
2018-04-19T09:09:49.572Z,2891
2018-04-19T09:10:50.334Z,2868
2018-04-19T09:11:51.187Z,2868
2018-04-19T09:12:51.991Z,2941
2018-04-19T09:13:52.762Z,2975
2018-04-19T09:14:53.515Z,3043
2018-04-19T09:15:54.277Z,3065
2018-04-19T09:16:55.031Z,3003
2018-04-19T09:17:55.793Z,3037
2018-04-19T09:18:56.554Z,2975
2018-04-19T09:19:57.315Z,2970
2018-04-19T09:20:58.091Z,2947
2018-04-19T09:21:58.841Z,2902
2018-04-19T09:22:59.656Z,2868
2018-04-19T09:24:00.483Z,2851
2018-04-19T09:25:01.254Z,2868
2018-04-19T09:26:02.062Z,2930
2018-04-19T09:27:02.785Z,2913
2018-04-19T09:28:03.590Z,2986
2018-04-19T09:29:04.334Z,3043
2018-04-19T09:30:05.125Z,3071
2018-04-19T09:31:05.923Z,3082
2018-04-19T09:32:06.676Z,3105
2018-04-19T09:33:07.478Z,3138
2018-04-19T09:34:08.326Z,3116
2018-04-19T09:35:09.082Z,3110
2018-04-19T09:36:09.830Z,3048
2018-04-19T09:37:10.664Z,2401
2018-04-19T09:38:11.549Z,3082
2018-04-19T09:39:12.305Z,3172
2018-04-19T09:40:13.133Z,3228
2018-04-19T09:41:13.972Z,3155
2018-04-19T09:42:14.718Z,3195
2018-04-19T09:43:15.479Z,3223
2018-04-19T09:44:16.226Z,3251
2018-04-19T09:45:17.071Z,3296
2018-04-19T09:46:17.936Z,3296
2018-04-19T09:47:18.693Z,3363
2018-04-19T09:48:19.461Z,3403
2018-04-19T09:49:20.219Z,3420
2018-04-19T09:50:20.977Z,3436
2018-04-19T09:51:21.959Z,3420
2018-04-19T09:52:22.699Z,3414
2018-04-19T09:53:23.439Z,3375
2018-04-19T09:54:24.250Z,3380
2018-04-19T09:55:25.091Z,3285
2018-04-19T09:56:25.846Z,3341
2018-04-19T09:57:26.671Z,3307
2018-04-19T09:58:27.452Z,3313
2018-04-19T09:59:28.217Z,3363
2018-04-19T10:00:29.079Z,3442
2018-04-19T10:01:29.895Z,3408
2018-04-19T10:02:30.916Z,3487
2018-04-19T10:03:31.727Z,3549
2018-04-19T10:04:32.473Z,3594
2018-04-19T10:05:33.300Z,3628
2018-04-19T10:06:34.050Z,3628
2018-04-19T10:07:34.853Z,3628
2018-04-19T10:08:35.708Z,3605
2018-04-19T10:09:36.488Z,3330
2018-04-19T10:10:37.213Z,3273
2018-04-19T10:11:37.958Z,3611
2018-04-19T10:12:38.807Z,3532
2018-04-19T10:13:39.562Z,3465
2018-04-19T10:14:40.317Z,3425
2018-04-19T10:15:41.080Z,3380
2018-04-19T10:16:41.898Z,3330
2018-04-19T10:17:42.971Z,3296
2018-04-19T10:18:44.090Z,3307
2018-04-19T10:19:44.803Z,3341
2018-04-19T10:20:45.951Z,3391
2018-04-19T10:21:46.707Z,3436
2018-04-19T10:22:47.847Z,3470
2018-04-19T10:23:48.765Z,3476
2018-04-19T10:24:49.522Z,3487
2018-04-19T10:25:50.430Z,3498
2018-04-19T10:26:51.174Z,3470
2018-04-19T10:27:51.932Z,3470
2018-04-19T10:28:52.692Z,3481
2018-04-19T10:29:53.436Z,3481
2018-04-19T10:30:54.245Z,3493
2018-04-19T10:31:55.073Z,3481
2018-04-19T10:32:56.128Z,3425
2018-04-19T10:33:56.948Z,3352
2018-04-19T10:34:57.833Z,3352
2018-04-19T10:35:58.600Z,3403
2018-04-19T10:36:59.423Z,3448
2018-04-19T10:38:00.234Z,3408
2018-04-19T10:39:01.052Z,3363
2018-04-19T10:40:01.895Z,3307
2018-04-19T10:41:02.721Z,3195
2018-04-19T10:42:03.549Z,3037
2018-04-19T10:43:04.303Z,2919
2018-04-19T10:44:05.175Z,2761
2018-04-19T10:45:06.515Z,2728
2018-04-19T10:46:07.476Z,2722
2018-04-19T10:47:08.401Z,2790
2018-04-19T10:48:09.122Z,2936
2018-04-19T10:49:10.039Z,3088
2018-04-19T10:50:10.790Z,3161
2018-04-19T10:51:11.556Z,3217
2018-04-19T10:53:13.299Z,3369
2018-04-19T10:54:14.098Z,3465
2018-04-19T10:55:14.871Z,3420
2018-04-19T10:56:15.617Z,3408
2018-04-19T10:57:16.378Z,3391
2018-04-19T10:58:17.203Z,3386
2018-04-19T10:59:18.044Z,3386
2018-04-19T11:00:18.809Z,3408
2018-04-19T11:01:19.589Z,3369
2018-04-19T11:02:20.355Z,3369
2018-04-19T11:03:21.161Z,3397
2018-04-19T11:04:21.945Z,3386
2018-04-19T11:05:22.707Z,3414
2018-04-19T11:06:23.452Z,3414
2018-04-19T11:07:24.213Z,3403
2018-04-19T11:08:24.962Z,3352
2018-04-19T11:09:25.719Z,3116
2018-04-19T11:10:26.612Z,3324
2018-04-19T11:11:27.448Z,3341
2018-04-19T11:12:28.267Z,3076
2018-04-19T11:13:29.030Z,3414
2018-04-19T11:14:29.856Z,3425
2018-04-19T11:15:31.486Z,3425
2018-04-19T11:16:32.341Z,3386
2018-04-19T11:17:33.184Z,3290
2018-04-19T11:18:33.985Z,3330
2018-04-19T11:19:34.757Z,3375
2018-04-19T11:20:36.008Z,3369
2018-04-19T11:21:36.858Z,3358
2018-04-19T11:22:37.625Z,3414
2018-04-19T11:23:38.662Z,3448
2018-04-19T11:24:39.525Z,3465
2018-04-19T11:25:40.288Z,3386
2018-04-19T11:26:41.062Z,3228
2018-04-19T11:27:41.894Z,3110
2018-04-19T11:28:42.712Z,3088
2018-04-19T11:29:43.476Z,3099
2018-04-19T11:30:44.292Z,2981
2018-04-19T11:31:45.047Z,3015
2018-04-19T11:32:45.890Z,2981
2018-04-19T11:33:46.649Z,3037
2018-04-19T11:34:47.434Z,3093
2018-04-19T11:35:48.228Z,3105
2018-04-19T11:36:48.999Z,3189
2018-04-19T11:37:49.896Z,3251
2018-04-19T11:38:50.644Z,3273
2018-04-19T11:39:51.415Z,3251
2018-04-19T11:40:52.163Z,3200
2018-04-19T11:41:52.927Z,3172
2018-04-19T11:42:53.694Z,3166
2018-04-19T11:43:54.456Z,3150
2018-04-19T11:44:55.392Z,3166
2018-04-19T11:45:56.146Z,3195
2018-04-19T11:46:56.898Z,3223
2018-04-19T11:47:57.655Z,3228
2018-04-19T11:48:58.478Z,3273
2018-04-19T11:49:59.208Z,3268
2018-04-19T11:51:00.018Z,3228
2018-04-19T11:52:00.767Z,3189
2018-04-19T11:53:01.621Z,3183
2018-04-19T11:54:02.381Z,3206
2018-04-19T11:55:03.168Z,3211
2018-04-19T11:56:03.928Z,3166
2018-04-19T11:57:04.679Z,3183
2018-04-19T11:58:05.418Z,3076
2018-04-19T11:59:06.180Z,3003
2018-04-19T12:00:07.013Z,2868
2018-04-19T12:01:07.891Z,2756
2018-04-19T12:02:08.682Z,2655
2018-04-19T12:03:09.465Z,2565
2018-04-19T12:04:10.210Z,2542
2018-04-19T12:05:10.984Z,2632
2018-04-19T12:06:11.788Z,2745
2018-04-19T12:07:12.532Z,2851
2018-04-19T12:08:13.325Z,2981
2018-04-19T12:09:14.092Z,3116
2018-04-19T12:10:14.846Z,3211
2018-04-19T12:11:15.701Z,3240
2018-04-19T12:12:16.527Z,3228
2018-04-19T12:13:17.306Z,3178
2018-04-19T12:14:18.124Z,3099
2018-04-19T12:15:19.225Z,2986
2018-04-19T12:16:20.002Z,3110
2018-04-19T12:17:20.734Z,3043
2018-04-19T12:18:21.504Z,3054
2018-04-19T12:19:22.360Z,3031
2018-04-19T12:20:23.092Z,3026
2018-04-19T12:21:23.885Z,3009
2018-04-19T12:22:24.716Z,3003
2018-04-19T12:23:25.589Z,2970
2018-04-19T12:24:26.314Z,2947
2018-04-19T12:25:27.093Z,2891
2018-04-19T12:26:27.914Z,2936
2018-04-19T12:27:28.695Z,2964
2018-04-19T12:28:29.468Z,2941
2018-04-19T12:29:30.242Z,2868
2018-04-19T12:30:31.071Z,2919
2018-04-19T12:31:31.900Z,3026
2018-04-19T12:32:32.661Z,3015
2018-04-19T12:33:33.499Z,2936
2018-04-19T12:34:34.264Z,2919
2018-04-19T12:35:35.025Z,2857
2018-04-19T12:36:35.766Z,2801
2018-04-19T12:37:36.608Z,2790
2018-04-19T12:38:37.400Z,2778
2018-04-19T12:39:38.184Z,2840
2018-04-19T12:40:39.006Z,2863
2018-04-19T12:41:39.800Z,2863
2018-04-19T12:42:40.534Z,2896
2018-04-19T12:43:41.336Z,2925
2018-04-19T12:44:42.181Z,2896
2018-04-19T12:45:43.007Z,2874
2018-04-19T12:46:43.768Z,2885
2018-04-19T12:47:44.624Z,2930
2018-04-19T12:48:45.449Z,2902
2018-04-19T12:49:46.272Z,2880
2018-04-19T12:50:47.083Z,2857
2018-04-19T12:51:47.879Z,2880
2018-04-19T12:52:48.629Z,2874
2018-04-19T12:53:49.453Z,2790
2018-04-19T12:54:50.217Z,2767
2018-04-19T12:55:51.055Z,2683
2018-04-19T12:56:51.840Z,2559
2018-04-19T12:57:52.977Z,2458
2018-04-19T12:58:53.741Z,2385
2018-04-19T12:59:54.567Z,2328
2018-04-19T13:00:55.315Z,2340
2018-04-19T13:01:56.068Z,2356
2018-04-19T13:02:56.943Z,2441
2018-04-19T13:03:57.713Z,2514
2018-04-19T13:04:58.535Z,2553
2018-04-19T13:05:59.291Z,2615
2018-04-19T13:07:00.104Z,2581
2018-04-19T13:08:01.258Z,2351
2018-04-19T13:09:02.008Z,2559
2018-04-19T13:10:02.830Z,2610
2018-04-19T13:11:03.660Z,2610
2018-04-19T13:12:04.495Z,2621
2018-04-19T13:13:05.334Z,2615
2018-04-19T13:14:06.076Z,2626
2018-04-19T13:15:06.877Z,2441
2018-04-19T13:16:07.647Z,2390
2018-04-19T13:17:08.390Z,2508
2018-04-19T13:18:09.286Z,2643
2018-04-19T13:19:10.030Z,2430
2018-04-19T13:20:10.786Z,2401
2018-04-19T13:21:11.548Z,2565
2018-04-19T13:22:12.306Z,2711
2018-04-19T13:23:13.059Z,2739
2018-04-19T13:24:13.860Z,2891
2018-04-19T13:25:14.620Z,2885
2018-04-19T13:26:15.394Z,2818
2018-04-19T13:27:16.233Z,2773
2018-04-19T13:28:16.985Z,2700
2018-04-19T13:29:17.841Z,2649
2018-04-19T13:30:18.594Z,2559
2018-04-19T13:31:19.402Z,2632
2018-04-19T13:32:20.234Z,2615
2018-04-19T13:33:20.994Z,2626
2018-04-19T13:34:21.768Z,2683
2018-04-19T13:35:22.582Z,2739
2018-04-19T13:36:23.340Z,2761
2018-04-19T13:37:24.086Z,2778
2018-04-19T13:38:24.856Z,2745
2018-04-19T13:39:25.609Z,2469
2018-04-19T13:40:26.371Z,2356
2018-04-19T13:41:27.112Z,2176
2018-04-19T13:42:27.868Z,2238
2018-04-19T13:43:28.635Z,2041
2018-04-19T13:44:29.391Z,2345
2018-04-19T13:45:30.129Z,2340
2018-04-19T13:46:30.988Z,2356
2018-04-19T13:47:31.887Z,2418
2018-04-19T13:48:32.644Z,2469
2018-04-19T13:49:33.455Z,2452
2018-04-19T13:50:34.276Z,2497
2018-04-19T13:51:35.047Z,2435
2018-04-19T13:52:35.841Z,2446
2018-04-19T13:53:36.597Z,2598
2018-04-19T13:54:37.343Z,2503
2018-04-19T13:55:38.106Z,2452
2018-04-19T13:56:38.951Z,2469
2018-04-19T13:57:39.697Z,2334
2018-04-19T13:58:40.474Z,2373
2018-04-19T13:59:41.232Z,2418
2018-04-19T14:00:41.974Z,2418
2018-04-19T14:01:42.840Z,2368
2018-04-19T14:02:43.695Z,2289
2018-04-19T14:03:44.438Z,2216